sensor_id;sensor_type;location;lat;lon;timestamp;P1;durP1;ratioP1;P2;durP2;ratioP2
253;SDS011;590;48.772;8.846;2024-03-17T00:00:25;4.10;;;3.90;;
253;SDS011;590;48.772;8.846;2024-03-17T00:02:53;4.30;;;4.00;;
253;SDS011;590;48.772;8.846;2024-03-17T00:05:19;4.05;;;3.85;;
253;SDS011;590;48.772;8.846;2024-03-17T00:07:47;5.00;;;4.70;;
253;SDS011;590;48.772;8.846;2024-03-17T00:10:13;4.80;;;4.43;;
253;SDS011;590;48.772;8.846;2024-03-17T00:12:41;4.23;;;3.97;;
253;SDS011;590;48.772;8.846;2024-03-17T00:15:07;4.45;;;4.15;;
253;SDS011;590;48.772;8.846;2024-03-17T00:17:35;4.30;;;4.03;;
253;SDS011;590;48.772;8.846;2024-03-17T00:20:03;3.87;;;3.67;;
253;SDS011;590;48.772;8.846;2024-03-17T00:22:44;4.35;;;4.03;;
253;SDS011;590;48.772;8.846;2024-03-17T00:25:11;5.70;;;5.03;;
253;SDS011;590;48.772;8.846;2024-03-17T00:27:38;4.68;;;4.38;;
253;SDS011;590;48.772;8.846;2024-03-17T00:30:05;4.25;;;3.97;;
253;SDS011;590;48.772;8.846;2024-03-17T00:32:35;4.38;;;4.07;;
253;SDS011;590;48.772;8.846;2024-03-17T00:35:03;3.95;;;3.75;;
253;SDS011;590;48.772;8.846;2024-03-17T00:37:31;4.10;;;3.88;;
253;SDS011;590;48.772;8.846;2024-03-17T00:39:58;3.97;;;3.78;;
253;SDS011;590;48.772;8.846;2024-03-17T00:42:26;4.20;;;3.60;;
253;SDS011;590;48.772;8.846;2024-03-17T00:44:52;4.10;;;3.90;;
253;SDS011;590;48.772;8.846;2024-03-17T00:47:20;5.57;;;4.32;;
253;SDS011;590;48.772;8.846;2024-03-17T00:49:46;4.53;;;4.23;;
253;SDS011;590;48.772;8.846;2024-03-17T00:52:16;5.65;;;5.35;;
253;SDS011;590;48.772;8.846;2024-03-17T00:54:43;4.35;;;4.05;;
253;SDS011;590;48.772;8.846;2024-03-17T00:57:13;4.95;;;4.65;;
253;SDS011;590;48.772;8.846;2024-03-17T00:59:39;5.35;;;5.05;;
253;SDS011;590;48.772;8.846;2024-03-17T01:02:08;4.78;;;4.47;;
253;SDS011;590;48.772;8.846;2024-03-17T01:04:35;3.80;;;3.60;;
253;SDS011;590;48.772;8.846;2024-03-17T01:07:01;4.30;;;4.00;;
253;SDS011;590;48.772;8.846;2024-03-17T01:09:30;4.40;;;4.10;;
253;SDS011;590;48.772;8.846;2024-03-17T01:11:56;4.50;;;4.20;;
253;SDS011;590;48.772;8.846;2024-03-17T01:14:23;4.03;;;3.83;;
253;SDS011;590;48.772;8.846;2024-03-17T01:16:50;4.57;;;4.28;;
253;SDS011;590;48.772;8.846;2024-03-17T01:19:17;4.18;;;3.92;;
253;SDS011;590;48.772;8.846;2024-03-17T01:21:43;4.25;;;3.97;;
253;SDS011;590;48.772;8.846;2024-03-17T01:24:10;3.97;;;3.78;;
253;SDS011;590;48.772;8.846;2024-03-17T01:26:38;4.37;;;4.07;;
253;SDS011;590;48.772;8.846;2024-03-17T01:29:05;4.90;;;4.60;;
253;SDS011;590;48.772;8.846;2024-03-17T01:31:31;5.18;;;4.88;;
253;SDS011;590;48.772;8.846;2024-03-17T01:33:58;4.53;;;4.22;;
253;SDS011;590;48.772;8.846;2024-03-17T01:36:25;4.30;;;4.00;;
253;SDS011;590;48.772;8.846;2024-03-17T01:38:51;4.30;;;4.00;;
253;SDS011;590;48.772;8.846;2024-03-17T01:41:18;4.25;;;3.97;;
253;SDS011;590;48.772;8.846;2024-03-17T01:43:46;4.43;;;4.13;;
253;SDS011;590;48.772;8.846;2024-03-17T01:46:14;4.80;;;4.50;;
253;SDS011;590;48.772;8.846;2024-03-17T01:48:42;4.40;;;4.10;;
253;SDS011;590;48.772;8.846;2024-03-17T01:51:11;4.60;;;4.30;;
253;SDS011;590;48.772;8.846;2024-03-17T01:53:38;4.50;;;4.20;;
253;SDS011;590;48.772;8.846;2024-03-17T01:56:06;4.70;;;4.40;;
253;SDS011;590;48.772;8.846;2024-03-17T01:58:35;3.80;;;3.60;;
253;SDS011;590;48.772;8.846;2024-03-17T02:01:06;4.43;;;4.13;;
253;SDS011;590;48.772;8.846;2024-03-17T02:03:32;4.53;;;4.22;;
253;SDS011;590;48.772;8.846;2024-03-17T02:06:00;4.55;;;4.25;;
253;SDS011;590;48.772;8.846;2024-03-17T02:08:26;8.15;;;5.20;;
253;SDS011;590;48.772;8.846;2024-03-17T02:10:53;5.43;;;5.13;;
253;SDS011;590;48.772;8.846;2024-03-17T02:13:19;4.75;;;4.32;;
253;SDS011;590;48.772;8.846;2024-03-17T02:15:47;5.30;;;5.00;;
253;SDS011;590;48.772;8.846;2024-03-17T02:18:14;4.93;;;4.63;;
253;SDS011;590;48.772;8.846;2024-03-17T02:20:41;4.93;;;4.63;;
253;SDS011;590;48.772;8.846;2024-03-17T02:23:26;4.45;;;4.15;;
253;SDS011;590;48.772;8.846;2024-03-17T02:25:54;5.55;;;5.25;;
253;SDS011;590;48.772;8.846;2024-03-17T02:28:20;4.87;;;4.57;;
253;SDS011;590;48.772;8.846;2024-03-17T02:30:47;5.40;;;5.10;;
253;SDS011;590;48.772;8.846;2024-03-17T02:33:13;5.82;;;5.53;;
253;SDS011;590;48.772;8.846;2024-03-17T02:35:40;5.60;;;5.30;;
253;SDS011;590;48.772;8.846;2024-03-17T02:38:06;6.13;;;5.80;;
253;SDS011;590;48.772;8.846;2024-03-17T02:40:41;5.75;;;5.45;;
253;SDS011;590;48.772;8.846;2024-03-17T02:43:08;5.32;;;5.05;;
253;SDS011;590;48.772;8.846;2024-03-17T02:45:35;5.25;;;4.95;;
253;SDS011;590;48.772;8.846;2024-03-17T02:48:02;6.15;;;5.85;;
253;SDS011;590;48.772;8.846;2024-03-17T02:50:31;5.47;;;5.18;;
253;SDS011;590;48.772;8.846;2024-03-17T02:52:59;10.75;;;5.15;;
253;SDS011;590;48.772;8.846;2024-03-17T02:55:28;5.28;;;4.97;;
253;SDS011;590;48.772;8.846;2024-03-17T02:57:57;5.63;;;5.32;;
253;SDS011;590;48.772;8.846;2024-03-17T03:00:24;5.70;;;5.40;;
253;SDS011;590;48.772;8.846;2024-03-17T03:02:51;6.22;;;5.90;;
253;SDS011;590;48.772;8.846;2024-03-17T03:05:17;6.00;;;5.70;;
253;SDS011;590;48.772;8.846;2024-03-17T03:07:44;6.25;;;5.80;;
253;SDS011;590;48.772;8.846;2024-03-17T03:10:11;5.47;;;5.18;;
253;SDS011;590;48.772;8.846;2024-03-17T03:12:39;6.10;;;5.80;;
253;SDS011;590;48.772;8.846;2024-03-17T03:15:07;6.18;;;5.85;;
253;SDS011;590;48.772;8.846;2024-03-17T03:17:35;5.53;;;5.22;;
253;SDS011;590;48.772;8.846;2024-03-17T03:20:02;5.47;;;5.18;;
253;SDS011;590;48.772;8.846;2024-03-17T03:22:31;5.43;;;5.13;;
253;SDS011;590;48.772;8.846;2024-03-17T03:24:58;5.10;;;4.80;;
253;SDS011;590;48.772;8.846;2024-03-17T03:27:25;4.88;;;4.57;;
253;SDS011;590;48.772;8.846;2024-03-17T03:29:52;5.10;;;4.80;;
253;SDS011;590;48.772;8.846;2024-03-17T03:32:22;4.75;;;4.45;;
253;SDS011;590;48.772;8.846;2024-03-17T03:34:49;4.85;;;4.55;;
253;SDS011;590;48.772;8.846;2024-03-17T03:37:17;4.97;;;4.68;;
253;SDS011;590;48.772;8.846;2024-03-17T03:39:44;6.18;;;5.88;;
253;SDS011;590;48.772;8.846;2024-03-17T03:42:11;5.95;;;5.53;;
253;SDS011;590;48.772;8.846;2024-03-17T03:44:38;5.45;;;5.15;;
253;SDS011;590;48.772;8.846;2024-03-17T03:47:05;9.93;;;9.43;;
253;SDS011;590;48.772;8.846;2024-03-17T03:49:34;8.00;;;7.60;;
253;SDS011;590;48.772;8.846;2024-03-17T03:52:01;6.00;;;5.70;;
253;SDS011;590;48.772;8.846;2024-03-17T03:54:36;6.00;;;5.70;;
253;SDS011;590;48.772;8.846;2024-03-17T03:57:03;6.20;;;5.90;;
253;SDS011;590;48.772;8.846;2024-03-17T03:59:30;4.90;;;4.60;;
253;SDS011;590;48.772;8.846;2024-03-17T04:01:57;4.82;;;4.53;;
253;SDS011;590;48.772;8.846;2024-03-17T04:04:25;5.20;;;4.90;;
253;SDS011;590;48.772;8.846;2024-03-17T04:06:53;4.78;;;4.47;;
253;SDS011;590;48.772;8.846;2024-03-17T04:09:21;5.20;;;4.90;;
253;SDS011;590;48.772;8.846;2024-03-17T04:11:48;5.72;;;5.43;;
253;SDS011;590;48.772;8.846;2024-03-17T04:14:15;5.32;;;5.03;;
253;SDS011;590;48.772;8.846;2024-03-17T04:16:42;5.75;;;5.45;;
253;SDS011;590;48.772;8.846;2024-03-17T04:19:09;5.65;;;5.35;;
253;SDS011;590;48.772;8.846;2024-03-17T04:21:36;7.00;;;6.60;;
253;SDS011;590;48.772;8.846;2024-03-17T04:24:05;6.40;;;6.03;;
253;SDS011;590;48.772;8.846;2024-03-17T04:26:32;5.93;;;5.63;;
253;SDS011;590;48.772;8.846;2024-03-17T04:29:00;5.63;;;5.32;;
253;SDS011;590;48.772;8.846;2024-03-17T04:31:27;5.45;;;5.15;;
253;SDS011;590;48.772;8.846;2024-03-17T04:33:53;5.25;;;4.95;;
253;SDS011;590;48.772;8.846;2024-03-17T04:36:20;5.55;;;5.25;;
253;SDS011;590;48.772;8.846;2024-03-17T04:38:47;6.20;;;5.90;;
253;SDS011;590;48.772;8.846;2024-03-17T04:41:16;5.97;;;5.68;;
253;SDS011;590;48.772;8.846;2024-03-17T04:43:44;5.03;;;4.72;;
253;SDS011;590;48.772;8.846;2024-03-17T04:46:11;4.68;;;4.38;;
253;SDS011;590;48.772;8.846;2024-03-17T04:48:39;4.55;;;4.25;;
253;SDS011;590;48.772;8.846;2024-03-17T04:51:06;5.25;;;4.95;;
253;SDS011;590;48.772;8.846;2024-03-17T04:53:33;5.75;;;5.45;;
253;SDS011;590;48.772;8.846;2024-03-17T04:56:00;5.35;;;5.05;;
253;SDS011;590;48.772;8.846;2024-03-17T04:58:31;4.63;;;4.32;;
253;SDS011;590;48.772;8.846;2024-03-17T05:01:02;4.80;;;4.50;;
253;SDS011;590;48.772;8.846;2024-03-17T05:03:31;5.60;;;5.30;;
253;SDS011;590;48.772;8.846;2024-03-17T05:05:59;11.52;;;10.93;;
253;SDS011;590;48.772;8.846;2024-03-17T05:08:29;7.25;;;6.85;;
253;SDS011;590;48.772;8.846;2024-03-17T05:10:57;5.63;;;5.32;;
253;SDS011;590;48.772;8.846;2024-03-17T05:13:25;5.13;;;4.82;;
253;SDS011;590;48.772;8.846;2024-03-17T05:15:54;7.80;;;6.20;;
253;SDS011;590;48.772;8.846;2024-03-17T05:18:21;5.65;;;5.35;;
253;SDS011;590;48.772;8.846;2024-03-17T05:20:57;6.88;;;6.47;;
253;SDS011;590;48.772;8.846;2024-03-17T05:23:26;7.03;;;6.63;;
253;SDS011;590;48.772;8.846;2024-03-17T05:25:54;6.30;;;5.63;;
253;SDS011;590;48.772;8.846;2024-03-17T05:28:22;6.13;;;5.82;;
253;SDS011;590;48.772;8.846;2024-03-17T05:30:49;5.80;;;5.50;;
253;SDS011;590;48.772;8.846;2024-03-17T05:33:19;6.93;;;6.53;;
253;SDS011;590;48.772;8.846;2024-03-17T05:35:50;6.75;;;6.35;;
253;SDS011;590;48.772;8.846;2024-03-17T05:38:19;6.55;;;6.15;;
253;SDS011;590;48.772;8.846;2024-03-17T05:40:53;6.00;;;5.70;;
253;SDS011;590;48.772;8.846;2024-03-17T05:43:21;6.93;;;6.53;;
253;SDS011;590;48.772;8.846;2024-03-17T05:45:49;7.13;;;6.72;;
253;SDS011;590;48.772;8.846;2024-03-17T05:48:16;7.40;;;7.00;;
253;SDS011;590;48.772;8.846;2024-03-17T05:50:45;7.10;;;6.50;;
253;SDS011;590;48.772;8.846;2024-03-17T05:53:12;6.20;;;5.90;;
253;SDS011;590;48.772;8.846;2024-03-17T05:55:39;6.82;;;6.43;;
253;SDS011;590;48.772;8.846;2024-03-17T05:58:08;6.57;;;6.18;;
253;SDS011;590;48.772;8.846;2024-03-17T06:00:35;7.05;;;6.65;;
253;SDS011;590;48.772;8.846;2024-03-17T06:03:03;6.55;;;6.15;;
253;SDS011;590;48.772;8.846;2024-03-17T06:05:33;6.55;;;6.18;;
253;SDS011;590;48.772;8.846;2024-03-17T06:08:03;4.90;;;4.60;;
253;SDS011;590;48.772;8.846;2024-03-17T06:10:36;5.40;;;5.10;;
253;SDS011;590;48.772;8.846;2024-03-17T06:13:08;5.85;;;5.55;;
253;SDS011;590;48.772;8.846;2024-03-17T06:15:37;6.75;;;6.35;;
253;SDS011;590;48.772;8.846;2024-03-17T06:18:05;6.60;;;6.20;;
253;SDS011;590;48.772;8.846;2024-03-17T06:20:34;6.68;;;6.28;;
253;SDS011;590;48.772;8.846;2024-03-17T06:23:03;6.10;;;5.80;;
253;SDS011;590;48.772;8.846;2024-03-17T06:25:31;5.45;;;5.15;;
253;SDS011;590;48.772;8.846;2024-03-17T06:27:58;6.20;;;5.88;;
253;SDS011;590;48.772;8.846;2024-03-17T06:30:27;6.70;;;6.30;;
253;SDS011;590;48.772;8.846;2024-03-17T06:32:54;6.15;;;5.85;;
253;SDS011;590;48.772;8.846;2024-03-17T06:35:21;6.55;;;6.15;;
253;SDS011;590;48.772;8.846;2024-03-17T06:37:51;5.90;;;5.60;;
253;SDS011;590;48.772;8.846;2024-03-17T06:40:20;6.30;;;5.95;;
253;SDS011;590;48.772;8.846;2024-03-17T06:42:47;5.68;;;5.38;;
253;SDS011;590;48.772;8.846;2024-03-17T06:45:15;5.88;;;5.57;;
253;SDS011;590;48.772;8.846;2024-03-17T06:47:45;6.38;;;6.00;;
253;SDS011;590;48.772;8.846;2024-03-17T06:50:13;5.07;;;4.78;;
253;SDS011;590;48.772;8.846;2024-03-17T06:52:40;6.03;;;5.72;;
253;SDS011;590;48.772;8.846;2024-03-17T06:55:08;5.88;;;5.57;;
253;SDS011;590;48.772;8.846;2024-03-17T06:57:36;7.13;;;6.72;;
253;SDS011;590;48.772;8.846;2024-03-17T07:00:04;6.38;;;6.00;;
253;SDS011;590;48.772;8.846;2024-03-17T07:02:39;6.80;;;6.40;;
253;SDS011;590;48.772;8.846;2024-03-17T07:05:11;6.50;;;6.10;;
253;SDS011;590;48.772;8.846;2024-03-17T07:07:40;8.85;;;8.35;;
253;SDS011;590;48.772;8.846;2024-03-17T07:10:08;11.45;;;10.85;;
253;SDS011;590;48.772;8.846;2024-03-17T07:12:38;9.23;;;8.73;;
253;SDS011;590;48.772;8.846;2024-03-17T07:15:06;10.30;;;9.80;;
253;SDS011;590;48.772;8.846;2024-03-17T07:17:33;8.97;;;8.47;;
253;SDS011;590;48.772;8.846;2024-03-17T07:20:01;5.90;;;5.60;;
253;SDS011;590;48.772;8.846;2024-03-17T07:22:33;6.68;;;6.28;;
253;SDS011;590;48.772;8.846;2024-03-17T07:25:00;6.50;;;6.10;;
253;SDS011;590;48.772;8.846;2024-03-17T07:27:27;7.55;;;7.15;;
253;SDS011;590;48.772;8.846;2024-03-17T07:29:56;7.60;;;7.20;;
253;SDS011;590;48.772;8.846;2024-03-17T07:32:23;8.10;;;7.70;;
253;SDS011;590;48.772;8.846;2024-03-17T07:34:50;7.30;;;6.90;;
253;SDS011;590;48.772;8.846;2024-03-17T07:37:17;7.57;;;7.17;;
253;SDS011;590;48.772;8.846;2024-03-17T07:39:44;8.07;;;7.67;;
253;SDS011;590;48.772;8.846;2024-03-17T07:42:15;5.97;;;5.67;;
253;SDS011;590;48.772;8.846;2024-03-17T07:44:43;6.53;;;6.13;;
253;SDS011;590;48.772;8.846;2024-03-17T07:47:14;6.93;;;6.53;;
253;SDS011;590;48.772;8.846;2024-03-17T07:49:45;8.07;;;7.67;;
253;SDS011;590;48.772;8.846;2024-03-17T07:52:12;7.77;;;7.37;;
253;SDS011;590;48.772;8.846;2024-03-17T07:54:41;10.00;;;9.50;;
253;SDS011;590;48.772;8.846;2024-03-17T07:57:45;6.20;;;5.90;;
253;SDS011;590;48.772;8.846;2024-03-17T08:00:56;5.97;;;5.67;;
253;SDS011;590;48.772;8.846;2024-03-17T08:03:27;5.10;;;4.80;;
253;SDS011;590;48.772;8.846;2024-03-17T08:05:55;7.20;;;6.80;;
253;SDS011;590;48.772;8.846;2024-03-17T08:08:22;6.47;;;6.07;;
253;SDS011;590;48.772;8.846;2024-03-17T08:10:49;5.90;;;5.60;;
253;SDS011;590;48.772;8.846;2024-03-17T08:13:17;5.70;;;5.40;;
253;SDS011;590;48.772;8.846;2024-03-17T08:15:45;10.23;;;9.67;;
253;SDS011;590;48.772;8.846;2024-03-17T08:18:13;5.90;;;5.60;;
253;SDS011;590;48.772;8.846;2024-03-17T08:20:42;4.97;;;4.67;;
253;SDS011;590;48.772;8.846;2024-03-17T08:23:10;4.80;;;4.50;;
253;SDS011;590;48.772;8.846;2024-03-17T08:25:37;5.00;;;4.70;;
253;SDS011;590;48.772;8.846;2024-03-17T08:28:04;5.23;;;4.93;;
253;SDS011;590;48.772;8.846;2024-03-17T08:30:32;5.90;;;5.60;;
253;SDS011;590;48.772;8.846;2024-03-17T08:32:59;6.53;;;6.13;;
253;SDS011;590;48.772;8.846;2024-03-17T08:35:26;5.10;;;4.80;;
253;SDS011;590;48.772;8.846;2024-03-17T08:37:55;5.97;;;5.67;;
253;SDS011;590;48.772;8.846;2024-03-17T08:40:26;6.60;;;6.20;;
253;SDS011;590;48.772;8.846;2024-03-17T08:42:53;6.17;;;5.87;;
253;SDS011;590;48.772;8.846;2024-03-17T08:45:28;5.97;;;5.67;;
253;SDS011;590;48.772;8.846;2024-03-17T08:58:01;5.43;;;5.13;;
253;SDS011;590;48.772;8.846;2024-03-17T09:00:28;5.17;;;4.87;;
253;SDS011;590;48.772;8.846;2024-03-17T09:02:57;5.43;;;5.13;;
253;SDS011;590;48.772;8.846;2024-03-17T09:05:24;6.00;;;5.70;;
253;SDS011;590;48.772;8.846;2024-03-17T09:07:51;4.60;;;4.30;;
253;SDS011;590;48.772;8.846;2024-03-17T09:10:18;5.50;;;5.20;;
253;SDS011;590;48.772;8.846;2024-03-17T09:12:46;5.20;;;4.90;;
253;SDS011;590;48.772;8.846;2024-03-17T09:15:14;4.50;;;4.20;;
253;SDS011;590;48.772;8.846;2024-03-17T09:17:41;4.97;;;4.67;;
253;SDS011;590;48.772;8.846;2024-03-17T09:20:10;4.97;;;4.67;;
253;SDS011;590;48.772;8.846;2024-03-17T09:22:40;4.80;;;4.50;;
253;SDS011;590;48.772;8.846;2024-03-17T09:25:07;5.70;;;5.40;;
253;SDS011;590;48.772;8.846;2024-03-17T09:27:35;4.70;;;4.40;;
253;SDS011;590;48.772;8.846;2024-03-17T09:30:03;4.87;;;4.57;;
253;SDS011;590;48.772;8.846;2024-03-17T09:32:36;3.70;;;3.50;;
253;SDS011;590;48.772;8.846;2024-03-17T09:35:03;4.70;;;4.40;;
253;SDS011;590;48.772;8.846;2024-03-17T09:37:31;4.53;;;4.23;;
253;SDS011;590;48.772;8.846;2024-03-17T09:39:58;4.23;;;3.97;;
253;SDS011;590;48.772;8.846;2024-03-17T09:42:26;4.70;;;4.40;;
253;SDS011;590;48.772;8.846;2024-03-17T09:45:10;4.40;;;4.10;;
253;SDS011;590;48.772;8.846;2024-03-17T09:47:40;4.60;;;4.30;;
253;SDS011;590;48.772;8.846;2024-03-17T09:50:12;5.13;;;4.87;;
253;SDS011;590;48.772;8.846;2024-03-17T09:52:42;4.47;;;4.17;;
253;SDS011;590;48.772;8.846;2024-03-17T09:55:13;4.53;;;4.23;;
253;SDS011;590;48.772;8.846;2024-03-17T09:57:42;3.97;;;3.77;;
253;SDS011;590;48.772;8.846;2024-03-17T10:00:11;4.13;;;3.90;;
253;SDS011;590;48.772;8.846;2024-03-17T10:02:44;4.30;;;3.80;;
253;SDS011;590;48.772;8.846;2024-03-17T10:05:18;4.73;;;4.40;;
253;SDS011;590;48.772;8.846;2024-03-17T10:07:47;3.27;;;3.07;;
253;SDS011;590;48.772;8.846;2024-03-17T10:10:15;5.50;;;5.20;;
253;SDS011;590;48.772;8.846;2024-03-17T10:12:43;4.53;;;4.23;;
253;SDS011;590;48.772;8.846;2024-03-17T10:15:15;4.37;;;4.07;;
253;SDS011;590;48.772;8.846;2024-03-17T10:17:42;5.37;;;4.10;;
253;SDS011;590;48.772;8.846;2024-03-17T10:23:21;3.63;;;3.43;;
253;SDS011;590;48.772;8.846;2024-03-17T10:25:49;4.00;;;3.80;;
253;SDS011;590;48.772;8.846;2024-03-17T10:28:17;3.97;;;3.77;;
253;SDS011;590;48.772;8.846;2024-03-17T10:30:56;3.53;;;3.33;;
253;SDS011;590;48.772;8.846;2024-03-17T10:33:25;3.67;;;3.47;;
253;SDS011;590;48.772;8.846;2024-03-17T10:35:59;3.50;;;3.30;;
253;SDS011;590;48.772;8.846;2024-03-17T10:38:27;4.60;;;4.30;;
253;SDS011;590;48.772;8.846;2024-03-17T10:40:58;3.90;;;3.70;;
253;SDS011;590;48.772;8.846;2024-03-17T10:43:25;3.60;;;3.40;;
253;SDS011;590;48.772;8.846;2024-03-17T10:45:53;3.33;;;3.13;;
253;SDS011;590;48.772;8.846;2024-03-17T10:48:21;6.60;;;3.63;;
253;SDS011;590;48.772;8.846;2024-03-17T10:50:56;3.57;;;3.37;;
253;SDS011;590;48.772;8.846;2024-03-17T10:53:28;3.43;;;3.23;;
253;SDS011;590;48.772;8.846;2024-03-17T10:56:00;3.30;;;3.10;;
253;SDS011;590;48.772;8.846;2024-03-17T10:58:33;2.00;;;1.93;;
253;SDS011;590;48.772;8.846;2024-03-17T11:01:02;3.30;;;1.90;;
253;SDS011;590;48.772;8.846;2024-03-17T11:03:31;1.90;;;1.80;;
253;SDS011;590;48.772;8.846;2024-03-17T11:06:02;1.40;;;1.30;;
253;SDS011;590;48.772;8.846;2024-03-17T11:08:31;2.20;;;2.00;;
253;SDS011;590;48.772;8.846;2024-03-17T11:10:58;1.90;;;1.80;;
253;SDS011;590;48.772;8.846;2024-03-17T11:13:26;2.07;;;1.93;;
253;SDS011;590;48.772;8.846;2024-03-17T11:15:54;1.43;;;1.33;;
253;SDS011;590;48.772;8.846;2024-03-17T11:18:33;2.07;;;1.93;;
253;SDS011;590;48.772;8.846;2024-03-17T11:21:03;1.77;;;1.70;;
253;SDS011;590;48.772;8.846;2024-03-17T11:23:36;1.57;;;1.47;;
253;SDS011;590;48.772;8.846;2024-03-17T11:26:04;1.30;;;1.20;;
253;SDS011;590;48.772;8.846;2024-03-17T11:31:41;1.40;;;1.30;;
253;SDS011;590;48.772;8.846;2024-03-17T11:34:27;1.17;;;1.17;;
253;SDS011;590;48.772;8.846;2024-03-17T11:37:04;2.57;;;1.50;;
253;SDS011;590;48.772;8.846;2024-03-17T11:39:46;1.63;;;1.57;;
253;SDS011;590;48.772;8.846;2024-03-17T11:42:22;2.90;;;1.73;;
253;SDS011;590;48.772;8.846;2024-03-17T11:45:03;1.50;;;1.40;;
253;SDS011;590;48.772;8.846;2024-03-17T11:47:41;1.70;;;1.50;;
253;SDS011;590;48.772;8.846;2024-03-17T11:50:08;1.20;;;1.13;;
253;SDS011;590;48.772;8.846;2024-03-17T11:52:41;3.00;;;1.53;;
253;SDS011;590;48.772;8.846;2024-03-17T11:55:14;1.53;;;1.43;;
253;SDS011;590;48.772;8.846;2024-03-17T11:57:43;1.97;;;1.07;;
253;SDS011;590;48.772;8.846;2024-03-17T12:00:20;1.43;;;1.30;;
253;SDS011;590;48.772;8.846;2024-03-17T12:02:49;1.70;;;1.07;;
253;SDS011;590;48.772;8.846;2024-03-17T12:05:17;1.43;;;1.33;;
253;SDS011;590;48.772;8.846;2024-03-17T12:07:46;1.80;;;1.50;;
253;SDS011;590;48.772;8.846;2024-03-17T12:10:12;1.40;;;1.20;;
253;SDS011;590;48.772;8.846;2024-03-17T12:12:40;1.87;;;1.37;;
253;SDS011;590;48.772;8.846;2024-03-17T12:15:16;1.03;;;0.93;;
253;SDS011;590;48.772;8.846;2024-03-17T12:17:44;1.30;;;1.30;;
253;SDS011;590;48.772;8.846;2024-03-17T12:20:16;1.23;;;1.10;;
253;SDS011;590;48.772;8.846;2024-03-17T12:33:33;1.70;;;0.90;;
253;SDS011;590;48.772;8.846;2024-03-17T12:36:09;4.77;;;1.70;;
253;SDS011;590;48.772;8.846;2024-03-17T12:38:38;1.00;;;1.00;;
253;SDS011;590;48.772;8.846;2024-03-17T12:41:05;1.83;;;1.23;;
253;SDS011;590;48.772;8.846;2024-03-17T12:43:47;1.10;;;1.07;;
253;SDS011;590;48.772;8.846;2024-03-17T12:46:41;1.33;;;1.30;;
253;SDS011;590;48.772;8.846;2024-03-17T12:49:33;1.70;;;0.80;;
253;SDS011;590;48.772;8.846;2024-03-17T12:52:04;2.43;;;1.03;;
253;SDS011;590;48.772;8.846;2024-03-17T12:54:43;1.50;;;1.40;;
253;SDS011;590;48.772;8.846;2024-03-17T12:57:15;3.00;;;2.80;;
253;SDS011;590;48.772;8.846;2024-03-17T13:00:00;1.60;;;1.50;;
253;SDS011;590;48.772;8.846;2024-03-17T13:02:45;1.67;;;1.00;;
253;SDS011;590;48.772;8.846;2024-03-17T13:05:16;0.90;;;0.80;;
253;SDS011;590;48.772;8.846;2024-03-17T13:07:45;2.50;;;1.40;;
253;SDS011;590;48.772;8.846;2024-03-17T13:10:13;1.67;;;1.00;;
253;SDS011;590;48.772;8.846;2024-03-17T13:12:41;1.50;;;1.40;;
253;SDS011;590;48.772;8.846;2024-03-17T13:15:09;1.63;;;0.83;;
253;SDS011;590;48.772;8.846;2024-03-17T13:17:38;1.23;;;1.13;;
253;SDS011;590;48.772;8.846;2024-03-17T13:20:07;1.33;;;1.10;;
253;SDS011;590;48.772;8.846;2024-03-17T13:22:38;1.03;;;1.00;;
253;SDS011;590;48.772;8.846;2024-03-17T13:25:30;1.30;;;1.20;;
253;SDS011;590;48.772;8.846;2024-03-17T13:28:20;1.40;;;1.07;;
253;SDS011;590;48.772;8.846;2024-03-17T13:30:49;1.93;;;1.20;;
253;SDS011;590;48.772;8.846;2024-03-17T13:33:18;0.97;;;0.80;;
253;SDS011;590;48.772;8.846;2024-03-17T13:35:47;1.67;;;1.60;;
253;SDS011;590;48.772;8.846;2024-03-17T13:38:15;1.70;;;1.27;;
253;SDS011;590;48.772;8.846;2024-03-17T13:40:43;1.30;;;1.20;;
253;SDS011;590;48.772;8.846;2024-03-17T13:43:12;1.00;;;0.90;;
253;SDS011;590;48.772;8.846;2024-03-17T13:45:41;1.80;;;1.23;;
253;SDS011;590;48.772;8.846;2024-03-17T13:48:09;1.33;;;1.23;;
253;SDS011;590;48.772;8.846;2024-03-17T13:50:37;1.80;;;1.70;;
253;SDS011;590;48.772;8.846;2024-03-17T13:53:07;2.60;;;1.70;;
253;SDS011;590;48.772;8.846;2024-03-17T13:55:35;3.47;;;3.07;;
253;SDS011;590;48.772;8.846;2024-03-17T13:58:03;2.27;;;2.07;;
253;SDS011;590;48.772;8.846;2024-03-17T14:00:30;2.20;;;2.00;;
253;SDS011;590;48.772;8.846;2024-03-17T14:03:01;1.73;;;1.60;;
253;SDS011;590;48.772;8.846;2024-03-17T14:05:28;3.00;;;2.80;;
253;SDS011;590;48.772;8.846;2024-03-17T14:07:58;3.20;;;3.00;;
253;SDS011;590;48.772;8.846;2024-03-17T14:10:26;2.63;;;2.43;;
253;SDS011;590;48.772;8.846;2024-03-17T14:12:54;2.20;;;2.00;;
253;SDS011;590;48.772;8.846;2024-03-17T14:15:22;2.87;;;2.67;;
253;SDS011;590;48.772;8.846;2024-03-17T14:18:15;1.77;;;1.67;;
253;SDS011;590;48.772;8.846;2024-03-17T14:20:46;1.77;;;1.73;;
253;SDS011;590;48.772;8.846;2024-03-17T14:23:13;3.43;;;2.20;;
253;SDS011;590;48.772;8.846;2024-03-17T14:25:43;1.73;;;1.70;;
253;SDS011;590;48.772;8.846;2024-03-17T14:28:10;2.47;;;2.20;;
253;SDS011;590;48.772;8.846;2024-03-17T14:30:37;2.30;;;2.17;;
253;SDS011;590;48.772;8.846;2024-03-17T14:33:08;2.27;;;2.07;;
253;SDS011;590;48.772;8.846;2024-03-17T14:35:36;1.90;;;1.80;;
253;SDS011;590;48.772;8.846;2024-03-17T14:38:03;2.47;;;2.27;;
253;SDS011;590;48.772;8.846;2024-03-17T14:40:30;2.30;;;2.10;;
253;SDS011;590;48.772;8.846;2024-03-17T14:42:59;2.20;;;2.00;;
253;SDS011;590;48.772;8.846;2024-03-17T14:45:28;3.70;;;3.00;;
253;SDS011;590;48.772;8.846;2024-03-17T14:47:56;1.67;;;1.63;;
253;SDS011;590;48.772;8.846;2024-03-17T14:50:23;2.00;;;1.90;;
253;SDS011;590;48.772;8.846;2024-03-17T14:52:51;1.70;;;1.60;;
253;SDS011;590;48.772;8.846;2024-03-17T14:55:18;1.77;;;1.67;;
253;SDS011;590;48.772;8.846;2024-03-17T14:57:46;1.67;;;1.60;;
253;SDS011;590;48.772;8.846;2024-03-17T15:00:15;2.90;;;2.70;;
253;SDS011;590;48.772;8.846;2024-03-17T15:02:46;2.80;;;2.60;;
253;SDS011;590;48.772;8.846;2024-03-17T15:05:18;1.90;;;1.80;;
253;SDS011;590;48.772;8.846;2024-03-17T15:08:12;2.83;;;2.63;;
253;SDS011;590;48.772;8.846;2024-03-17T15:11:05;2.60;;;2.40;;
253;SDS011;590;48.772;8.846;2024-03-17T15:13:36;2.30;;;2.17;;
253;SDS011;590;48.772;8.846;2024-03-17T15:16:09;2.37;;;1.83;;
253;SDS011;590;48.772;8.846;2024-03-17T15:18:37;2.47;;;2.30;;
253;SDS011;590;48.772;8.846;2024-03-17T15:21:07;2.70;;;2.57;;
253;SDS011;590;48.772;8.846;2024-03-17T15:23:34;2.77;;;2.30;;
253;SDS011;590;48.772;8.846;2024-03-17T15:26:16;2.27;;;2.07;;
253;SDS011;590;48.772;8.846;2024-03-17T15:28:45;3.50;;;3.30;;
253;SDS011;590;48.772;8.846;2024-03-17T15:31:14;4.43;;;4.13;;
253;SDS011;590;48.772;8.846;2024-03-17T15:33:44;4.37;;;4.07;;
253;SDS011;590;48.772;8.846;2024-03-17T15:36:11;3.37;;;3.17;;
253;SDS011;590;48.772;8.846;2024-03-17T15:38:38;3.30;;;3.10;;
253;SDS011;590;48.772;8.846;2024-03-17T15:41:06;3.03;;;2.83;;
253;SDS011;590;48.772;8.846;2024-03-17T15:43:35;3.33;;;3.13;;
253;SDS011;590;48.772;8.846;2024-03-17T15:46:05;3.70;;;3.50;;
253;SDS011;590;48.772;8.846;2024-03-17T15:48:35;4.30;;;3.83;;
253;SDS011;590;48.772;8.846;2024-03-17T15:51:03;6.83;;;6.43;;
253;SDS011;590;48.772;8.846;2024-03-17T15:53:31;6.47;;;6.07;;
253;SDS011;590;48.772;8.846;2024-03-17T15:55:59;5.73;;;5.43;;
253;SDS011;590;48.772;8.846;2024-03-17T15:58:27;4.77;;;4.47;;
253;SDS011;590;48.772;8.846;2024-03-17T16:00:55;4.20;;;3.93;;
253;SDS011;590;48.772;8.846;2024-03-17T16:03:28;4.70;;;4.40;;
253;SDS011;590;48.772;8.846;2024-03-17T16:05:59;5.43;;;5.13;;
253;SDS011;590;48.772;8.846;2024-03-17T16:08:32;5.23;;;4.93;;
253;SDS011;590;48.772;8.846;2024-03-17T16:11:03;4.63;;;4.33;;
253;SDS011;590;48.772;8.846;2024-03-17T16:13:31;4.73;;;4.43;;
253;SDS011;590;48.772;8.846;2024-03-17T16:16:01;4.03;;;3.83;;
253;SDS011;590;48.772;8.846;2024-03-17T16:18:31;3.50;;;3.30;;
253;SDS011;590;48.772;8.846;2024-03-17T16:21:04;4.97;;;4.67;;
253;SDS011;590;48.772;8.846;2024-03-17T16:23:36;4.40;;;4.10;;
253;SDS011;590;48.772;8.846;2024-03-17T16:26:06;5.10;;;4.80;;